createdAt,value
2023-02-01T00:00:17.505Z,7.73
2023-02-01T00:02:45.401Z,7.73
2023-02-01T00:05:13.580Z,7.72
2023-02-01T00:07:41.241Z,7.71
2023-02-01T00:10:10.183Z,7.70
2023-02-01T00:12:38.918Z,7.70
2023-02-01T00:15:07.622Z,7.69
2023-02-01T00:17:36.689Z,7.69
2023-02-01T00:20:05.143Z,7.68
2023-02-01T00:22:32.839Z,7.68
2023-02-01T00:25:00.541Z,7.66
2023-02-01T00:27:28.248Z,7.65
2023-02-01T00:29:56.458Z,7.63
2023-02-01T00:32:24.186Z,7.63
2023-02-01T00:34:53.264Z,7.61
2023-02-01T00:37:20.955Z,7.60
2023-02-01T00:39:48.701Z,7.59
2023-02-01T00:42:16.406Z,7.60
2023-02-01T00:44:44.098Z,7.58
2023-02-01T00:47:11.773Z,7.58
2023-02-01T00:49:39.550Z,7.56
2023-02-01T00:52:08.587Z,7.54
2023-02-01T00:54:37.774Z,7.54
2023-02-01T00:57:05.500Z,7.51
2023-02-01T00:59:33.210Z,7.52
2023-02-01T01:02:01.003Z,7.52
2023-02-01T01:04:28.699Z,7.50
2023-02-01T01:06:56.383Z,7.51
2023-02-01T01:09:25.438Z,7.49
2023-02-01T01:11:53.689Z,7.50
2023-02-01T01:14:21.404Z,7.48
2023-02-01T01:16:51.512Z,7.48
2023-02-01T01:19:19.239Z,7.48
2023-02-01T01:21:46.917Z,7.47
2023-02-01T01:24:14.707Z,7.46
2023-02-01T01:26:43.838Z,7.44
2023-02-01T01:29:11.929Z,7.44
2023-02-01T01:31:39.682Z,7.42
2023-02-01T01:34:07.436Z,7.41
2023-02-01T01:36:35.187Z,7.41
2023-02-01T01:39:02.914Z,7.41
2023-02-01T01:41:33.560Z,7.40
2023-02-01T01:44:04.068Z,7.38
2023-02-01T01:46:33.830Z,7.36
2023-02-01T01:49:07.750Z,7.29
2023-02-01T01:51:42.562Z,7.36
2023-02-01T01:54:18.179Z,7.35
2023-02-01T01:56:51.241Z,7.34
2023-02-01T01:59:21.686Z,7.34
2023-02-01T02:01:49.815Z,7.33
2023-02-01T02:04:18.205Z,7.32
2023-02-01T02:06:52.245Z,7.30
2023-02-01T02:09:20.025Z,7.28
2023-02-01T02:11:47.764Z,7.31
2023-02-01T02:14:18.658Z,7.29
2023-02-01T02:17:10.035Z,7.31
2023-02-01T02:20:07.095Z,7.30
2023-02-01T02:23:07.574Z,7.30
2023-02-01T02:26:03.153Z,7.28
2023-02-01T02:29:02.580Z,7.27
2023-02-01T02:31:49.027Z,7.26
2023-02-01T02:34:24.089Z,7.25
2023-02-01T02:37:03.998Z,7.24
2023-02-01T02:39:40.497Z,7.24
2023-02-01T02:42:32.704Z,7.25
2023-02-01T02:45:25.232Z,7.24
2023-02-01T02:47:58.448Z,7.24
2023-02-01T02:50:48.942Z,7.22
2023-02-01T02:53:37.266Z,7.21
2023-02-01T02:56:25.292Z,7.20
2023-02-01T02:59:12.151Z,7.20
2023-02-01T03:01:59.363Z,7.18
2023-02-01T03:04:27.224Z,7.18
2023-02-01T03:06:56.621Z,7.19
2023-02-01T03:09:31.756Z,7.17
2023-02-01T03:12:21.855Z,7.17
2023-02-01T03:14:54.675Z,7.16
2023-02-01T03:17:29.627Z,7.16
2023-02-01T03:20:01.814Z,7.14
2023-02-01T03:22:32.830Z,7.13
2023-02-01T03:25:08.413Z,7.13
2023-02-01T03:27:41.410Z,7.12
2023-02-01T03:30:18.892Z,7.03
2023-02-01T03:33:02.173Z,7.11
2023-02-01T03:35:34.643Z,7.12
2023-02-01T03:38:14.661Z,7.13
2023-02-01T03:40:47.156Z,7.12
2023-02-01T03:43:19.789Z,7.13
2023-02-01T03:45:53.907Z,7.12
2023-02-01T03:48:25.474Z,7.12
2023-02-01T03:50:58.310Z,7.08
2023-02-01T03:53:28.663Z,7.12
2023-02-01T03:55:57.491Z,7.11
2023-02-01T03:58:25.694Z,7.11
2023-02-01T04:00:56.016Z,7.10
2023-02-01T04:03:24.283Z,7.10
2023-02-01T04:05:52.092Z,7.08
2023-02-01T04:08:20.216Z,7.07
2023-02-01T04:10:49.559Z,7.08
2023-02-01T04:13:17.264Z,7.09
2023-02-01T04:15:44.975Z,7.07
2023-02-01T04:18:12.687Z,7.07
2023-02-01T04:20:40.377Z,7.07
2023-02-01T04:23:08.111Z,7.08
2023-02-01T04:25:35.783Z,7.08
2023-02-01T04:28:05.778Z,7.07
2023-02-01T04:30:33.559Z,7.06
2023-02-01T04:33:01.420Z,7.05
2023-02-01T04:35:29.121Z,7.04
2023-02-01T04:37:56.822Z,7.05
2023-02-01T04:40:24.944Z,7.04
2023-02-01T04:42:52.925Z,7.04
2023-02-01T04:45:21.962Z,7.03
2023-02-01T04:47:50.036Z,7.03
2023-02-01T04:50:18.330Z,7.02
2023-02-01T04:52:47.188Z,7.03
2023-02-01T04:55:15.333Z,7.01
2023-02-01T04:57:43.344Z,7.01
2023-02-01T05:00:12.713Z,6.99
2023-02-01T05:02:41.915Z,6.97
2023-02-01T05:05:10.464Z,6.96
2023-02-01T05:07:38.145Z,6.96
2023-02-01T05:10:06.252Z,6.96
2023-02-01T05:12:51.317Z,6.94
2023-02-01T05:15:19.022Z,6.93
2023-02-01T05:17:48.090Z,6.93
2023-02-01T05:20:16.015Z,6.93
2023-02-01T05:22:43.781Z,6.93
2023-02-01T05:25:11.475Z,6.92
2023-02-01T05:27:39.235Z,6.92
2023-02-01T05:30:08.527Z,6.92
2023-02-01T05:32:36.365Z,6.90
2023-02-01T05:35:05.928Z,6.90
2023-02-01T05:37:33.665Z,6.91
2023-02-01T05:40:01.365Z,6.88
2023-02-01T05:42:29.112Z,6.90
2023-02-01T05:44:56.808Z,6.88
2023-02-01T05:47:24.495Z,6.89
2023-02-01T05:49:52.148Z,6.90
2023-02-01T05:52:21.213Z,6.91
2023-02-01T05:54:49.860Z,6.91
2023-02-01T05:57:17.823Z,6.91
2023-02-01T05:59:46.613Z,6.90
2023-02-01T06:02:14.559Z,6.92
2023-02-01T06:04:42.255Z,6.93
2023-02-01T06:07:11.344Z,6.91
2023-02-01T06:09:40.577Z,6.92
2023-02-01T06:12:08.600Z,6.90
2023-02-01T06:14:36.296Z,6.90
2023-02-01T06:17:04.002Z,6.90
2023-02-01T06:19:31.711Z,6.91
2023-02-01T06:21:59.388Z,6.92
2023-02-01T06:24:27.132Z,6.91
2023-02-01T06:26:56.223Z,6.90
2023-02-01T06:29:23.954Z,6.89
2023-02-01T06:31:51.853Z,6.90
2023-02-01T06:34:22.205Z,6.89
2023-02-01T06:36:50.052Z,6.90
2023-02-01T06:39:17.836Z,6.88
2023-02-01T06:41:48.223Z,6.88
2023-02-01T06:44:17.998Z,6.89
2023-02-01T06:46:45.776Z,6.87
2023-02-01T06:49:13.587Z,6.86
2023-02-01T06:51:41.322Z,6.88
2023-02-01T06:54:09.077Z,6.86
2023-02-01T06:56:36.786Z,6.85
2023-02-01T06:59:05.874Z,6.85
2023-02-01T07:01:35.373Z,6.85
2023-02-01T07:04:03.117Z,6.85
2023-02-01T07:06:31.089Z,6.86
2023-02-01T07:08:59.569Z,6.84
2023-02-01T07:11:28.985Z,6.84
2023-02-01T07:13:56.682Z,6.85
2023-02-01T07:16:24.780Z,6.80
2023-02-01T07:18:54.491Z,6.79
2023-02-01T07:21:22.403Z,6.79
2023-02-01T07:23:50.103Z,6.78
2023-02-01T07:26:18.351Z,6.78
2023-02-01T07:28:47.676Z,6.77
2023-02-01T07:31:19.275Z,6.78
2023-02-01T07:33:47.577Z,6.78
2023-02-01T07:36:18.332Z,6.75
2023-02-01T07:38:47.887Z,6.68
2023-02-01T07:41:15.923Z,6.67
2023-02-01T07:43:43.709Z,6.67
2023-02-01T07:46:12.265Z,6.67
2023-02-01T07:48:40.265Z,6.69
2023-02-01T07:51:10.598Z,6.69
2023-02-01T07:53:39.861Z,6.69
2023-02-01T07:56:13.896Z,6.72
2023-02-01T07:58:41.656Z,6.71
2023-02-01T08:01:22.116Z,6.73
2023-02-01T08:03:50.540Z,6.73
2023-02-01T08:06:18.335Z,6.73
2023-02-01T08:08:47.812Z,6.75
2023-02-01T08:11:16.243Z,6.74
2023-02-01T08:13:44.327Z,6.75
2023-02-01T08:16:13.972Z,6.70
2023-02-01T08:18:42.635Z,6.75
2023-02-01T08:21:12.947Z,6.75
2023-02-01T08:23:42.059Z,6.74
2023-02-01T08:26:14.523Z,6.74
2023-02-01T08:28:44.399Z,6.74
2023-02-01T08:31:15.759Z,6.74
2023-02-01T08:33:44.948Z,6.75
2023-02-01T08:36:13.170Z,6.76
2023-02-01T08:38:41.722Z,6.80
2023-02-01T08:41:12.223Z,6.82
2023-02-01T08:43:39.940Z,6.86
2023-02-01T08:46:08.054Z,6.88
2023-02-01T08:48:36.910Z,6.89
2023-02-01T08:51:06.076Z,6.88
2023-02-01T08:53:33.967Z,6.89
2023-02-01T08:56:02.617Z,6.89
2023-02-01T08:58:31.804Z,6.90
2023-02-01T09:00:59.557Z,6.91
2023-02-01T09:03:27.567Z,6.94
2023-02-01T09:06:02.600Z,7.11
2023-02-01T09:08:30.678Z,7.25
2023-02-01T09:11:03.204Z,7.39
2023-02-01T09:13:32.867Z,7.57
2023-02-01T09:16:00.974Z,7.63
2023-02-01T09:18:28.807Z,7.62
2023-02-01T09:20:56.526Z,7.61
2023-02-01T09:23:24.436Z,7.59
2023-02-01T09:25:52.534Z,7.68
2023-02-01T09:28:21.017Z,7.79
2023-02-01T09:30:50.117Z,7.96
2023-02-01T09:33:18.670Z,8.09
2023-02-01T09:35:46.428Z,8.29
2023-02-01T09:38:14.188Z,8.47
2023-02-01T09:40:48.082Z,8.59
2023-02-01T09:43:32.675Z,8.72
2023-02-01T09:46:18.517Z,8.61
2023-02-01T09:48:47.705Z,8.52
2023-02-01T09:51:18.819Z,8.56
2023-02-01T09:53:51.636Z,8.66
2023-02-01T09:56:25.679Z,8.79
2023-02-01T09:59:01.171Z,8.96
2023-02-01T10:01:31.327Z,9.02
2023-02-01T10:04:04.949Z,9.13
2023-02-01T10:06:40.320Z,9.22
2023-02-01T10:09:31.920Z,9.28
2023-02-01T10:12:17.904Z,9.35
2023-02-01T10:14:56.956Z,9.41
2023-02-01T10:17:40.774Z,9.42
2023-02-01T10:20:17.590Z,9.43
2023-02-01T10:23:11.411Z,9.52
2023-02-01T10:25:43.954Z,9.56
2023-02-01T10:28:17.648Z,9.58
2023-02-01T10:30:48.195Z,9.52
2023-02-01T10:33:24.076Z,9.38
2023-02-01T10:35:57.557Z,9.20
2023-02-01T10:38:29.035Z,8.99
2023-02-01T10:41:02.317Z,8.88
2023-02-01T10:43:30.536Z,8.73
2023-02-01T10:45:59.077Z,8.75
2023-02-01T10:48:30.257Z,8.76
2023-02-01T10:51:01.980Z,8.93
2023-02-01T10:53:38.251Z,9.20
2023-02-01T10:56:09.654Z,9.20
2023-02-01T10:58:44.796Z,9.36
2023-02-01T11:01:19.437Z,9.48
2023-02-01T11:03:55.690Z,9.47
2023-02-01T11:06:31.216Z,9.37
2023-02-01T11:09:01.645Z,9.26
2023-02-01T11:11:30.172Z,9.04
2023-02-01T11:14:00.483Z,8.92
2023-02-01T11:16:35.450Z,8.84
2023-02-01T11:19:05.382Z,8.73
2023-02-01T11:21:33.729Z,8.65
2023-02-01T11:24:04.813Z,8.63
2023-02-01T11:26:33.976Z,8.57
2023-02-01T11:29:05.228Z,8.50
2023-02-01T11:31:35.948Z,8.48
2023-02-01T11:34:10.539Z,8.42
2023-02-01T11:36:38.953Z,8.37
2023-02-01T11:39:19.527Z,8.33
2023-02-01T11:42:00.523Z,8.37
2023-02-01T11:44:33.914Z,8.54
2023-02-01T11:47:32.375Z,8.75
2023-02-01T11:50:03.662Z,8.95
2023-02-01T11:52:43.945Z,9.10
2023-02-01T11:55:31.416Z,9.26
2023-02-01T11:58:05.136Z,9.40
2023-02-01T12:00:46.331Z,9.52
2023-02-01T12:03:51.516Z,9.44
2023-02-01T12:06:30.788Z,9.27
2023-02-01T12:09:27.810Z,9.06
2023-02-01T12:12:05.487Z,8.92
2023-02-01T12:14:58.373Z,8.84
2023-02-01T12:17:54.922Z,8.76
2023-02-01T12:20:53.605Z,8.70
2023-02-01T12:23:38.907Z,8.65
2023-02-01T12:26:24.591Z,8.68
2023-02-01T12:29:13.856Z,8.57
2023-02-01T12:31:53.756Z,8.51
2023-02-01T12:34:34.499Z,8.50
2023-02-01T12:37:10.532Z,8.45
2023-02-01T12:39:43.036Z,8.43
2023-02-01T12:42:18.302Z,8.48
2023-02-01T12:44:51.231Z,8.62
2023-02-01T12:47:25.005Z,8.77
2023-02-01T12:50:01.844Z,8.93
2023-02-01T12:52:37.377Z,8.98
2023-02-01T12:55:18.490Z,9.25
2023-02-01T12:57:50.510Z,9.42
2023-02-01T13:00:27.314Z,9.61
2023-02-01T13:02:58.099Z,9.74
2023-02-01T13:05:33.256Z,9.78
2023-02-01T13:08:04.726Z,9.67
2023-02-01T13:10:38.470Z,9.46
2023-02-01T13:13:13.344Z,9.23
2023-02-01T13:15:44.752Z,9.10
2023-02-01T13:18:18.776Z,8.98
2023-02-01T13:20:55.259Z,8.90
2023-02-01T13:23:29.693Z,8.85
2023-02-01T13:25:58.811Z,8.78
2023-02-01T13:28:29.841Z,8.75
2023-02-01T13:31:26.657Z,8.74
2023-02-01T13:34:07.247Z,8.67
2023-02-01T13:36:57.000Z,8.66
2023-02-01T13:39:50.259Z,8.70
2023-02-01T13:42:23.282Z,8.62
2023-02-01T13:44:53.934Z,8.59
2023-02-01T13:47:27.727Z,8.55
2023-02-01T13:49:58.569Z,8.53
2023-02-01T13:52:30.961Z,8.51
2023-02-01T13:55:17.839Z,8.51
2023-02-01T13:57:47.941Z,8.47
2023-02-01T14:00:31.452Z,8.56
2023-02-01T14:03:16.761Z,8.47
2023-02-01T14:06:15.899Z,8.46
2023-02-01T14:09:07.604Z,8.44
2023-02-01T14:11:41.663Z,8.43
2023-02-01T14:14:45.766Z,8.43
2023-02-01T14:17:35.414Z,8.42
2023-02-01T14:20:49.747Z,8.41
2023-02-01T14:23:26.416Z,8.41
2023-02-01T14:26:12.789Z,8.53
2023-02-01T14:28:57.917Z,8.67
2023-02-01T14:31:42.361Z,8.84
2023-02-01T14:34:22.612Z,9.02
2023-02-01T14:36:56.002Z,9.17
2023-02-01T14:39:28.727Z,9.38
2023-02-01T14:42:02.368Z,9.48
2023-02-01T14:44:37.054Z,9.63
2023-02-01T14:47:07.679Z,9.64
2023-02-01T14:49:40.169Z,9.54
2023-02-01T14:52:14.902Z,9.38
2023-02-01T14:54:43.354Z,9.22
2023-02-01T14:57:19.002Z,9.09
2023-02-01T14:59:47.608Z,9.01
2023-02-01T15:02:25.190Z,8.95
2023-02-01T15:04:58.007Z,8.88
2023-02-01T15:07:28.040Z,8.84
2023-02-01T15:09:58.863Z,8.79
2023-02-01T15:12:31.536Z,8.75
2023-02-01T15:15:14.013Z,8.71
2023-02-01T15:17:42.633Z,8.68
2023-02-01T15:20:22.153Z,8.66
2023-02-01T15:22:56.414Z,8.62
2023-02-01T15:25:26.512Z,8.62
2023-02-01T15:27:54.760Z,8.59
2023-02-01T15:30:24.948Z,8.53
2023-02-01T15:32:53.381Z,8.57
2023-02-01T15:35:43.453Z,8.55
2023-02-01T15:38:22.097Z,8.45
2023-02-01T15:40:57.737Z,8.49
2023-02-01T15:43:26.505Z,8.51
2023-02-01T15:45:57.637Z,8.52
2023-02-01T15:48:27.016Z,8.51
2023-02-01T15:50:57.772Z,8.50
2023-02-01T15:53:31.903Z,8.53
2023-02-01T15:56:02.646Z,8.59
2023-02-01T15:58:32.750Z,8.77
2023-02-01T16:01:05.432Z,8.88
2023-02-01T16:03:39.202Z,8.97
2023-02-01T16:06:12.079Z,8.97
2023-02-01T16:08:51.425Z,8.93
2023-02-01T16:11:26.529Z,8.89
2023-02-01T16:13:54.268Z,8.85
2023-02-01T16:16:22.095Z,8.80
2023-02-01T16:18:49.831Z,8.75
2023-02-01T16:21:19.001Z,8.72
2023-02-01T16:23:50.932Z,8.68
2023-02-01T16:26:18.967Z,8.65
2023-02-01T16:28:46.933Z,8.63
2023-02-01T16:31:20.201Z,8.62
2023-02-01T16:33:50.578Z,8.60
2023-02-01T16:36:20.376Z,8.57
2023-02-01T16:38:50.252Z,8.56
2023-02-01T16:41:20.570Z,8.54
2023-02-01T16:43:51.916Z,8.53
2023-02-01T16:46:22.217Z,8.54
2023-02-01T16:48:53.822Z,8.52
2023-02-01T16:51:23.989Z,8.52
2023-02-01T16:53:54.853Z,8.51
2023-02-01T16:56:24.393Z,8.51
2023-02-01T16:58:52.307Z,8.51
2023-02-01T17:01:21.052Z,8.50
2023-02-01T17:03:50.975Z,8.51
2023-02-01T17:06:21.228Z,8.51
2023-02-01T17:08:54.511Z,8.48
2023-02-01T17:11:22.548Z,8.51
2023-02-01T17:13:50.266Z,8.50
2023-02-01T17:16:28.551Z,8.50
2023-02-01T17:18:59.402Z,8.50
2023-02-01T17:21:30.120Z,8.51
2023-02-01T17:24:01.198Z,8.60
2023-02-01T17:26:29.122Z,8.75
2023-02-01T17:28:57.913Z,8.90
2023-02-01T17:31:25.712Z,9.05
2023-02-01T17:33:53.503Z,9.23
2023-02-01T17:36:21.237Z,9.42
2023-02-01T17:39:03.661Z,9.56
2023-02-01T17:41:34.610Z,9.66
2023-02-01T17:44:03.185Z,9.63
2023-02-01T17:46:32.498Z,9.53
2023-02-01T17:49:01.405Z,9.43
2023-02-01T17:51:31.839Z,9.30
2023-02-01T17:53:59.640Z,9.18
2023-02-01T17:56:27.348Z,9.09
2023-02-01T17:59:00.108Z,9.02
2023-02-01T18:01:27.867Z,8.99
2023-02-01T18:03:55.689Z,8.92
2023-02-01T18:06:26.493Z,9.01
2023-02-01T18:08:54.804Z,8.99
2023-02-01T18:11:24.976Z,8.98
2023-02-01T18:13:55.969Z,8.99
2023-02-01T18:16:25.655Z,8.96
2023-02-01T18:18:54.042Z,8.97
2023-02-01T18:21:23.967Z,9.07
2023-02-01T18:23:51.683Z,9.17
2023-02-01T18:26:20.474Z,9.19
2023-02-01T18:28:48.345Z,9.20
2023-02-01T18:31:25.740Z,9.35
2023-02-01T18:33:55.388Z,9.54
2023-02-01T18:36:23.258Z,9.69
2023-02-01T18:38:51.060Z,9.83
2023-02-01T18:41:21.615Z,9.86
2023-02-01T18:43:50.106Z,9.83
2023-02-01T18:46:18.228Z,9.75
2023-02-01T18:48:47.342Z,9.62
2023-02-01T18:51:19.871Z,9.52
2023-02-01T18:53:48.257Z,9.39
2023-02-01T18:56:18.373Z,9.33
2023-02-01T18:58:46.496Z,9.27
2023-02-01T19:01:17.328Z,9.22
2023-02-01T19:03:54.152Z,9.18
2023-02-01T19:06:25.676Z,9.13
2023-02-01T19:08:56.091Z,9.09
2023-02-01T19:11:23.921Z,9.05
2023-02-01T19:13:51.997Z,9.02
2023-02-01T19:16:19.792Z,8.98
2023-02-01T19:18:52.079Z,8.97
2023-02-01T19:21:19.888Z,8.95
2023-02-01T19:23:47.684Z,8.93
2023-02-01T19:26:17.439Z,8.91
2023-02-01T19:28:47.868Z,8.90
2023-02-01T19:31:16.750Z,8.90
2023-02-01T19:33:44.563Z,8.89
2023-02-01T19:36:13.611Z,8.88
2023-02-01T19:38:41.563Z,8.86
2023-02-01T19:41:09.374Z,8.85
2023-02-01T19:43:39.588Z,8.84
2023-02-01T19:46:07.367Z,8.84
2023-02-01T19:48:35.273Z,8.83
2023-02-01T19:51:04.222Z,8.82
2023-02-01T19:53:33.407Z,8.81
2023-02-01T19:56:01.704Z,8.79
2023-02-01T19:58:30.719Z,8.79
2023-02-01T20:00:59.772Z,8.80
2023-02-01T20:03:28.557Z,8.78
2023-02-01T20:05:57.791Z,8.78
2023-02-01T20:08:26.008Z,8.79
2023-02-01T20:10:56.080Z,8.79
2023-02-01T20:13:23.854Z,8.78
2023-02-01T20:15:57.170Z,8.79
2023-02-01T20:18:25.135Z,8.79
2023-02-01T20:20:56.423Z,8.77
2023-02-01T20:23:24.488Z,8.78
2023-02-01T20:25:53.243Z,8.77
2023-02-01T20:28:22.337Z,8.76
2023-02-01T20:30:50.044Z,8.76
2023-02-01T20:33:18.718Z,8.77
2023-02-01T20:35:46.706Z,8.75
2023-02-01T20:38:15.235Z,8.75
2023-02-01T20:40:42.903Z,8.76
2023-02-01T20:43:10.654Z,8.75
2023-02-01T20:45:41.937Z,8.75
2023-02-01T20:48:10.580Z,8.75
2023-02-01T20:50:39.076Z,8.77
2023-02-01T20:53:06.919Z,8.77
2023-02-01T20:55:34.593Z,8.76
2023-02-01T20:58:02.324Z,8.76
2023-02-01T21:00:31.172Z,8.75
2023-02-01T21:03:00.282Z,8.78
2023-02-01T21:05:39.855Z,8.77
2023-02-01T21:08:08.996Z,8.77
2023-02-01T21:10:37.831Z,8.78
2023-02-01T21:13:05.843Z,8.75
2023-02-01T21:15:36.148Z,8.73
2023-02-01T21:18:06.814Z,8.75
2023-02-01T21:20:34.552Z,8.77
2023-02-01T21:23:02.346Z,8.75
2023-02-01T21:25:30.066Z,8.75
2023-02-01T21:27:57.813Z,8.75
2023-02-01T21:30:25.647Z,8.74
2023-02-01T21:32:53.360Z,8.72
2023-02-01T21:35:22.698Z,8.73
2023-02-01T21:37:50.798Z,8.73
2023-02-01T21:40:18.729Z,8.72
2023-02-01T21:42:46.736Z,8.71
2023-02-01T21:45:15.251Z,8.71
2023-02-01T21:47:43.690Z,8.71
2023-02-01T21:50:16.716Z,8.71
2023-02-01T21:52:46.132Z,8.72
2023-02-01T21:55:14.601Z,8.73
2023-02-01T21:57:42.420Z,8.72
2023-02-01T22:00:13.444Z,8.70
2023-02-01T22:02:41.812Z,8.69
2023-02-01T22:05:11.133Z,8.69
2023-02-01T22:07:38.890Z,8.72
2023-02-01T22:10:08.847Z,8.71
2023-02-01T22:12:36.576Z,8.70
2023-02-01T22:15:04.522Z,8.69
2023-02-01T22:17:32.540Z,8.69
2023-02-01T22:20:00.266Z,8.68
2023-02-01T22:22:27.931Z,8.68
2023-02-01T22:24:55.622Z,8.68
2023-02-01T22:27:33.192Z,8.67
2023-02-01T22:30:13.592Z,8.67
2023-02-01T22:32:41.302Z,8.66
2023-02-01T22:35:09.757Z,8.63
2023-02-01T22:37:37.523Z,8.64
2023-02-01T22:40:05.758Z,8.65
2023-02-01T22:42:34.893Z,8.63
2023-02-01T22:45:04.509Z,8.63
2023-02-01T22:47:32.275Z,8.66
2023-02-01T22:49:59.968Z,8.56
2023-02-01T22:52:27.665Z,8.64
2023-02-01T22:54:55.923Z,8.64
2023-02-01T22:57:23.611Z,8.64
2023-02-01T22:59:52.692Z,8.64
2023-02-01T23:02:20.425Z,8.64
2023-02-01T23:04:48.206Z,8.64
2023-02-01T23:07:15.938Z,8.64
2023-02-01T23:09:43.649Z,8.65
2023-02-01T23:12:11.365Z,8.66
2023-02-01T23:14:59.184Z,8.65
2023-02-01T23:17:28.330Z,8.65
2023-02-01T23:19:56.053Z,8.65
2023-02-01T23:22:23.741Z,8.64
2023-02-01T23:24:51.488Z,8.64
2023-02-01T23:27:19.191Z,8.62
2023-02-01T23:29:46.888Z,8.63
2023-02-01T23:32:16.162Z,8.64
2023-02-01T23:34:45.227Z,8.62
2023-02-01T23:37:12.958Z,8.62
2023-02-01T23:39:40.661Z,8.62
2023-02-01T23:42:08.371Z,8.61
2023-02-01T23:44:36.062Z,8.61
2023-02-01T23:47:03.828Z,8.60
2023-02-01T23:49:31.672Z,8.61
2023-02-01T23:52:00.714Z,8.59
2023-02-01T23:54:28.487Z,8.51
2023-02-01T23:56:57.290Z,8.58
2023-02-01T23:59:26.824Z,8.58
